createdAt,value
2019-03-10T00:01:51.034Z,90.50
2019-03-10T00:04:19.719Z,90.80
2019-03-10T00:06:48.368Z,90.80
2019-03-10T00:09:16.996Z,90.90
2019-03-10T00:11:49.445Z,90.90
2019-03-10T00:14:18.295Z,90.90
2019-03-10T00:16:54.981Z,91.00
2019-03-10T00:19:24.594Z,91.40
2019-03-10T00:21:53.475Z,91.10
2019-03-10T00:24:22.491Z,91.10
2019-03-10T00:26:51.071Z,91.20
2019-03-10T00:29:21.558Z,91.10
2019-03-10T00:31:50.183Z,91.20
2019-03-10T00:34:18.763Z,91.20
2019-03-10T00:36:47.376Z,91.20
2019-03-10T00:39:22.822Z,91.20
2019-03-10T00:42:13.852Z,91.20
2019-03-10T00:45:11.486Z,91.20
2019-03-10T00:48:03.079Z,91.20
2019-03-10T00:50:51.367Z,91.20
2019-03-10T00:53:20.065Z,91.20
2019-03-10T00:55:48.625Z,91.10
2019-03-10T00:58:17.550Z,91.10
2019-03-10T01:00:47.081Z,91.20
2019-03-10T01:03:15.728Z,91.00
2019-03-10T01:05:44.362Z,91.10
2019-03-10T01:08:14.064Z,91.20
2019-03-10T01:10:42.834Z,91.20
2019-03-10T01:13:11.499Z,91.40
2019-03-10T01:15:40.705Z,91.30
2019-03-10T01:18:12.898Z,91.30
2019-03-10T01:20:42.328Z,91.30
2019-03-10T01:23:10.925Z,91.10
2019-03-10T01:25:40.516Z,91.10
2019-03-10T01:28:10.131Z,90.60
2019-03-10T01:30:41.782Z,90.40
2019-03-10T01:33:25.083Z,90.40
2019-03-10T01:35:53.663Z,90.30
2019-03-10T01:38:22.234Z,90.10
2019-03-10T01:40:50.909Z,90.20
2019-03-10T01:43:19.496Z,90.20
2019-03-10T01:45:49.028Z,90.20
2019-03-10T01:48:17.634Z,90.30
2019-03-10T01:50:46.236Z,90.40
2019-03-10T01:53:25.006Z,90.40
2019-03-10T01:55:45.115Z,90.40
2019-03-10T01:58:14.005Z,90.50
2019-03-10T02:00:42.768Z,90.50
2019-03-10T02:03:12.296Z,90.60
2019-03-10T02:05:40.938Z,90.70
2019-03-10T02:08:09.544Z,90.80
2019-03-10T02:10:38.097Z,90.80
2019-03-10T02:13:06.662Z,90.80
2019-03-10T02:15:35.334Z,90.80
2019-03-10T02:18:05.298Z,90.80
2019-03-10T02:20:34.813Z,90.80
2019-03-10T02:23:03.459Z,90.80
2019-03-10T02:25:32.047Z,90.80
2019-03-10T02:28:00.616Z,90.80
2019-03-10T02:30:29.559Z,90.80
2019-03-10T02:32:58.167Z,90.80
2019-03-10T02:35:26.745Z,90.80
2019-03-10T02:37:57.331Z,90.70
2019-03-10T02:40:26.884Z,90.60
2019-03-10T02:42:55.462Z,90.10
2019-03-10T02:45:25.025Z,89.30
2019-03-10T02:47:53.619Z,88.00
2019-03-10T02:50:22.209Z,87.40
2019-03-10T02:52:50.867Z,85.60
2019-03-10T02:55:19.464Z,84.70
2019-03-10T02:57:48.374Z,83.60
2019-03-10T03:00:17.132Z,82.80
2019-03-10T03:02:45.793Z,83.00
2019-03-10T03:05:14.354Z,82.80
2019-03-10T03:07:43.015Z,83.30
2019-03-10T03:10:13.463Z,83.60
2019-03-10T03:12:42.403Z,84.00
2019-03-10T03:15:11.222Z,84.20
2019-03-10T03:17:40.731Z,83.40
2019-03-10T03:20:12.232Z,82.30
2019-03-10T03:22:40.840Z,81.70
2019-03-10T03:25:10.805Z,81.00
2019-03-10T03:27:41.330Z,80.10
2019-03-10T03:30:18.782Z,80.10
2019-03-10T03:32:47.437Z,80.40
2019-03-10T03:35:37.638Z,80.30
2019-03-10T03:38:06.193Z,80.40
2019-03-10T03:40:34.767Z,80.80
2019-03-10T03:43:03.394Z,81.40
2019-03-10T03:45:31.944Z,81.80
2019-03-10T03:48:00.533Z,82.00
2019-03-10T03:50:30.133Z,82.00
2019-03-10T03:52:58.704Z,81.50
2019-03-10T03:55:27.341Z,81.00
2019-03-10T03:57:55.969Z,80.60
2019-03-10T04:00:25.543Z,80.30
2019-03-10T04:02:54.104Z,79.90
2019-03-10T04:05:22.730Z,79.60
2019-03-10T04:07:51.283Z,79.60
2019-03-10T04:10:19.872Z,79.70
2019-03-10T04:12:48.482Z,79.70
2019-03-10T04:15:17.067Z,79.70
2019-03-10T04:17:45.632Z,79.40
2019-03-10T04:20:14.208Z,79.30
2019-03-10T04:22:42.813Z,79.40
2019-03-10T04:25:13.348Z,79.50
2019-03-10T04:27:41.908Z,79.80
2019-03-10T04:30:12.331Z,79.30
2019-03-10T04:32:41.240Z,79.30
2019-03-10T04:35:10.880Z,79.60
2019-03-10T04:37:39.532Z,79.40
2019-03-10T04:40:08.311Z,79.40
2019-03-10T04:42:36.905Z,79.40
2019-03-10T04:45:06.805Z,79.40
2019-03-10T04:47:35.407Z,79.20
2019-03-10T04:50:05.748Z,79.70
2019-03-10T04:52:34.322Z,78.60
2019-03-10T04:55:07.669Z,78.60
2019-03-10T04:57:36.360Z,78.80
2019-03-10T05:00:07.497Z,79.30
2019-03-10T05:02:36.124Z,79.30
2019-03-10T05:05:06.278Z,79.50
2019-03-10T05:07:34.890Z,79.90
2019-03-10T05:10:03.625Z,80.00
2019-03-10T05:12:32.195Z,80.00
2019-03-10T05:15:00.812Z,80.10
2019-03-10T05:17:29.378Z,80.20
2019-03-10T05:19:59.242Z,80.40
2019-03-10T05:22:27.809Z,80.50
2019-03-10T05:24:56.429Z,80.70
2019-03-10T05:27:26.213Z,81.00
2019-03-10T05:29:54.775Z,80.90
2019-03-10T05:32:23.430Z,81.10
2019-03-10T05:34:51.989Z,81.30
2019-03-10T05:37:20.561Z,81.20
2019-03-10T05:39:49.158Z,81.30
2019-03-10T05:42:17.804Z,81.20
2019-03-10T05:44:46.446Z,81.30
2019-03-10T05:47:15.024Z,81.10
2019-03-10T05:49:43.575Z,81.00
2019-03-10T05:52:12.599Z,81.00
2019-03-10T05:54:41.148Z,80.70
2019-03-10T05:57:09.727Z,80.60
2019-03-10T05:59:38.354Z,80.60
2019-03-10T06:02:08.893Z,80.50
2019-03-10T06:04:39.830Z,80.60
2019-03-10T06:07:11.634Z,80.60
2019-03-10T06:09:40.572Z,80.10
2019-03-10T06:12:10.093Z,79.50
2019-03-10T06:14:38.725Z,78.90
2019-03-10T06:17:07.318Z,78.80
2019-03-10T06:19:36.863Z,78.30
2019-03-10T06:22:05.589Z,77.90
2019-03-10T06:24:34.281Z,78.50
2019-03-10T06:27:02.858Z,77.60
2019-03-10T06:29:31.505Z,77.60
2019-03-10T06:32:01.087Z,77.40
2019-03-10T06:34:31.246Z,77.70
2019-03-10T06:37:00.849Z,77.60
2019-03-10T06:39:29.425Z,77.80
2019-03-10T06:41:58.366Z,77.70
2019-03-10T06:44:27.347Z,77.80
2019-03-10T06:46:56.985Z,77.80
2019-03-10T06:49:28.242Z,78.10
2019-03-10T06:51:56.819Z,77.00
2019-03-10T06:54:25.891Z,74.60
2019-03-10T06:56:54.499Z,73.40
2019-03-10T06:59:23.078Z,73.50
2019-03-10T07:01:52.587Z,69.90
2019-03-10T07:04:21.188Z,67.80
2019-03-10T07:06:51.723Z,66.30
2019-03-10T07:09:22.922Z,66.60
2019-03-10T07:11:57.374Z,68.50
2019-03-10T07:14:25.977Z,66.20
2019-03-10T07:16:54.548Z,65.50
2019-03-10T07:19:23.191Z,65.20
2019-03-10T07:21:54.794Z,65.50
2019-03-10T07:24:24.311Z,66.10
2019-03-10T07:26:52.911Z,67.10
2019-03-10T07:29:26.941Z,67.30
2019-03-10T07:31:57.236Z,67.30
2019-03-10T07:34:43.868Z,67.20
2019-03-10T07:37:19.928Z,66.70
2019-03-10T07:39:59.406Z,66.80
2019-03-10T07:42:35.706Z,65.00
2019-03-10T07:45:14.223Z,64.50
2019-03-10T07:47:59.413Z,63.90
2019-03-10T07:50:36.647Z,62.50
2019-03-10T07:53:26.082Z,62.40
2019-03-10T07:55:56.629Z,58.10
2019-03-10T07:58:38.396Z,56.80
2019-03-10T08:01:08.942Z,57.50
2019-03-10T08:03:39.148Z,57.30
2019-03-10T08:06:09.387Z,57.50
2019-03-10T08:08:39.614Z,57.40
2019-03-10T08:11:09.837Z,56.70
2019-03-10T08:13:56.363Z,56.80
2019-03-10T08:16:38.382Z,56.90
2019-03-10T08:19:12.133Z,57.00
2019-03-10T08:21:59.764Z,57.40
2019-03-10T08:24:46.042Z,55.30
2019-03-10T08:27:19.305Z,46.50
2019-03-10T08:29:52.274Z,44.80
2019-03-10T08:32:25.491Z,44.30
2019-03-10T08:34:55.782Z,44.60
2019-03-10T08:37:34.955Z,48.10
2019-03-10T08:40:08.847Z,47.50
2019-03-10T08:42:46.134Z,47.60
2019-03-10T08:45:28.262Z,47.90
2019-03-10T08:48:01.238Z,48.50
2019-03-10T08:50:31.476Z,48.40
2019-03-10T08:53:10.933Z,49.20
2019-03-10T08:55:53.441Z,50.90
2019-03-10T08:58:24.633Z,51.30
2019-03-10T09:01:00.845Z,52.10
2019-03-10T09:03:47.584Z,52.60
2019-03-10T09:06:17.874Z,53.60
2019-03-10T09:09:06.255Z,54.30
2019-03-10T09:11:49.582Z,55.10
2019-03-10T09:14:28.676Z,55.60
2019-03-10T09:17:10.756Z,55.80
2019-03-10T09:19:41.028Z,56.10
2019-03-10T09:22:20.462Z,56.50
2019-03-10T09:24:53.863Z,56.80
2019-03-10T09:27:28.802Z,56.70
2019-03-10T09:30:04.797Z,57.10
2019-03-10T09:32:36.823Z,55.50
2019-03-10T09:35:08.096Z,55.40
2019-03-10T09:37:44.018Z,53.10
2019-03-10T09:40:23.533Z,51.10
2019-03-10T09:43:10.189Z,49.60
2019-03-10T09:45:40.744Z,50.30
2019-03-10T09:48:10.993Z,50.60
2019-03-10T09:50:44.068Z,51.40
2019-03-10T09:53:29.278Z,51.60
2019-03-10T09:56:15.809Z,52.70
2019-03-10T09:58:57.906Z,52.60
2019-03-10T10:01:28.195Z,53.20
2019-03-10T10:03:58.413Z,53.60
2019-03-10T10:06:35.060Z,53.90
2019-03-10T10:09:05.441Z,54.00
2019-03-10T10:11:44.745Z,54.50
2019-03-10T10:14:26.944Z,54.60
2019-03-10T10:17:13.601Z,55.10
2019-03-10T10:19:43.816Z,54.90
2019-03-10T10:22:32.058Z,54.90
2019-03-10T10:25:04.191Z,54.90
2019-03-10T10:27:37.128Z,55.10
2019-03-10T10:30:29.404Z,55.20
2019-03-10T10:33:05.283Z,55.70
2019-03-10T10:35:41.436Z,55.90
2019-03-10T10:38:18.614Z,56.20
2019-03-10T10:40:53.361Z,56.30
2019-03-10T10:43:29.564Z,56.50
2019-03-10T10:46:02.462Z,56.80
2019-03-10T10:48:32.778Z,56.90
2019-03-10T10:51:06.181Z,56.70
2019-03-10T10:53:48.421Z,56.40
2019-03-10T10:56:36.898Z,56.10
2019-03-10T10:59:10.258Z,56.10
2019-03-10T11:01:46.403Z,56.00
2019-03-10T11:04:17.084Z,55.90
2019-03-10T11:06:50.124Z,55.90
2019-03-10T11:09:23.212Z,55.80
2019-03-10T11:11:53.503Z,55.80
2019-03-10T11:14:35.528Z,55.70
2019-03-10T11:17:05.766Z,55.20
2019-03-10T11:19:41.728Z,54.80
2019-03-10T11:22:14.980Z,54.40
2019-03-10T11:24:45.501Z,54.20
2019-03-10T11:27:15.721Z,54.10
2019-03-10T11:29:52.876Z,53.80
2019-03-10T11:32:28.949Z,54.00
2019-03-10T11:35:13.980Z,53.60
2019-03-10T11:37:44.298Z,53.50
2019-03-10T11:40:31.220Z,53.80
2019-03-10T11:43:04.468Z,53.90
2019-03-10T11:45:52.943Z,53.80
2019-03-10T11:48:39.617Z,53.60
2019-03-10T11:51:21.318Z,54.00
2019-03-10T11:53:57.717Z,54.30
2019-03-10T11:56:34.900Z,54.30
2019-03-10T11:59:12.673Z,54.30
2019-03-10T12:01:51.985Z,54.20
2019-03-10T12:04:28.022Z,54.00
2019-03-10T12:06:58.395Z,54.10
2019-03-10T12:09:27.179Z,54.70
2019-03-10T12:11:55.763Z,54.10
2019-03-10T12:14:24.361Z,54.30
2019-03-10T12:16:53.787Z,54.00
2019-03-10T12:19:22.430Z,54.00
2019-03-10T12:21:50.995Z,54.10
2019-03-10T12:24:19.572Z,54.10
2019-03-10T12:26:48.159Z,54.30
2019-03-10T12:29:16.760Z,54.50
2019-03-10T12:31:45.338Z,54.80
2019-03-10T12:34:14.026Z,54.70
2019-03-10T12:36:42.757Z,54.60
2019-03-10T12:39:11.451Z,54.50
2019-03-10T12:41:40.083Z,54.30
2019-03-10T12:44:08.705Z,54.20
2019-03-10T12:46:37.355Z,54.00
2019-03-10T12:49:05.921Z,54.20
2019-03-10T12:51:34.581Z,54.40
2019-03-10T12:54:03.117Z,54.30
2019-03-10T12:56:31.726Z,54.20
2019-03-10T12:59:01.651Z,53.90
2019-03-10T13:01:30.250Z,54.00
2019-03-10T13:03:59.409Z,54.20
2019-03-10T13:06:28.412Z,54.00
2019-03-10T13:08:57.312Z,53.90
2019-03-10T13:11:25.868Z,54.00
2019-03-10T13:13:54.586Z,54.10
2019-03-10T13:16:23.158Z,54.10
2019-03-10T13:18:51.738Z,54.20
2019-03-10T13:21:20.439Z,54.30
2019-03-10T13:23:48.997Z,54.20
2019-03-10T13:26:17.998Z,54.30
2019-03-10T13:28:46.664Z,54.40
2019-03-10T13:31:15.302Z,54.30
2019-03-10T13:33:47.626Z,54.10
2019-03-10T13:36:25.101Z,53.70
2019-03-10T13:39:08.503Z,53.50
2019-03-10T13:41:39.283Z,53.30
2019-03-10T13:44:07.943Z,53.10
2019-03-10T13:46:36.597Z,53.20
2019-03-10T13:49:05.209Z,53.00
2019-03-10T13:51:34.808Z,53.00
2019-03-10T13:54:03.388Z,53.10
2019-03-10T13:56:40.041Z,53.30
2019-03-10T13:59:08.715Z,53.10
2019-03-10T14:01:37.300Z,53.30
2019-03-10T14:04:05.984Z,53.50
2019-03-10T14:06:34.583Z,53.60
2019-03-10T14:09:04.259Z,53.80
2019-03-10T14:11:32.919Z,53.90
2019-03-10T14:14:01.556Z,54.00
2019-03-10T14:16:30.235Z,54.20
2019-03-10T14:18:58.799Z,54.20
2019-03-10T14:21:27.427Z,54.20
2019-03-10T14:23:57.056Z,54.20
2019-03-10T14:26:25.645Z,54.00
2019-03-10T14:28:54.311Z,53.90
2019-03-10T14:31:25.492Z,53.60
2019-03-10T14:33:54.058Z,53.30
2019-03-10T14:36:35.716Z,53.20
2019-03-10T14:39:06.113Z,53.00
2019-03-10T14:41:34.861Z,52.80
2019-03-10T14:44:03.653Z,52.70
2019-03-10T14:46:32.217Z,52.70
2019-03-10T14:49:00.785Z,52.80
2019-03-10T14:51:29.465Z,52.80
2019-03-10T14:53:59.566Z,52.90
2019-03-10T14:56:35.914Z,52.80
2019-03-10T14:59:06.878Z,52.80
2019-03-10T15:01:36.775Z,52.70
2019-03-10T15:04:05.477Z,53.40
2019-03-10T15:06:34.393Z,52.70
2019-03-10T15:09:03.689Z,52.80
2019-03-10T15:11:32.337Z,52.80
2019-03-10T15:14:04.063Z,53.00
2019-03-10T15:16:32.707Z,52.90
2019-03-10T15:19:01.296Z,53.10
2019-03-10T15:21:29.890Z,53.20
2019-03-10T15:23:59.147Z,52.60
2019-03-10T15:26:27.877Z,53.40
2019-03-10T15:28:56.424Z,53.20
2019-03-10T15:31:24.985Z,52.80
2019-03-10T15:33:53.557Z,52.60
2019-03-10T15:36:22.211Z,52.20
2019-03-10T15:38:50.791Z,52.00
2019-03-10T15:41:19.367Z,51.90
2019-03-10T15:43:47.969Z,51.90
2019-03-10T15:46:17.452Z,51.80
2019-03-10T15:48:47.015Z,51.70
2019-03-10T15:51:15.601Z,52.50
2019-03-10T15:53:45.182Z,51.70
2019-03-10T15:56:13.739Z,51.90
2019-03-10T15:58:42.482Z,52.10
2019-03-10T16:01:11.106Z,52.10
2019-03-10T16:03:39.681Z,52.30
2019-03-10T16:06:08.297Z,52.50
2019-03-10T16:08:36.865Z,52.60
2019-03-10T16:11:05.524Z,52.60
2019-03-10T16:13:35.200Z,52.70
2019-03-10T16:16:03.828Z,52.90
2019-03-10T16:18:32.414Z,53.00
2019-03-10T16:21:01.019Z,53.30
2019-03-10T16:23:29.589Z,53.30
2019-03-10T16:25:58.158Z,53.30
2019-03-10T16:28:26.919Z,53.40
2019-03-10T16:30:55.524Z,53.60
2019-03-10T16:33:25.502Z,53.80
2019-03-10T16:35:54.256Z,54.00
2019-03-10T16:38:23.176Z,54.20
2019-03-10T16:40:51.866Z,54.40
2019-03-10T16:43:20.878Z,54.80
2019-03-10T16:45:49.550Z,54.90
2019-03-10T16:48:18.161Z,55.40
2019-03-10T16:50:46.808Z,55.70
2019-03-10T16:53:15.388Z,56.20
2019-03-10T16:55:43.977Z,56.10
2019-03-10T16:58:12.552Z,56.30
2019-03-10T17:00:41.166Z,56.60
2019-03-10T17:03:10.229Z,57.00
2019-03-10T17:05:38.791Z,57.40
2019-03-10T17:08:07.374Z,57.60
2019-03-10T17:10:35.983Z,57.70
2019-03-10T17:13:04.552Z,57.70
2019-03-10T17:15:33.107Z,58.40
2019-03-10T17:18:01.836Z,58.60
2019-03-10T17:20:31.926Z,59.10
2019-03-10T17:23:00.569Z,59.40
2019-03-10T17:25:29.177Z,59.80
2019-03-10T17:27:57.764Z,60.20
2019-03-10T17:30:27.015Z,60.50
2019-03-10T17:32:55.628Z,60.70
2019-03-10T17:35:24.196Z,61.30
2019-03-10T17:37:52.763Z,61.80
2019-03-10T17:40:23.561Z,62.30
2019-03-10T17:42:53.293Z,63.00
2019-03-10T17:45:24.288Z,63.70
2019-03-10T17:47:52.932Z,64.00
2019-03-10T17:50:22.592Z,64.80
2019-03-10T17:52:52.338Z,65.10
2019-03-10T17:55:23.972Z,65.80
2019-03-10T17:57:52.596Z,66.10
2019-03-10T18:00:23.749Z,66.90
2019-03-10T18:02:52.305Z,67.50
2019-03-10T18:05:20.971Z,67.90
2019-03-10T18:07:49.844Z,68.20
2019-03-10T18:10:18.954Z,68.80
2019-03-10T18:12:47.532Z,69.30
2019-03-10T18:15:17.861Z,69.60
2019-03-10T18:17:46.851Z,69.70
2019-03-10T18:20:20.481Z,70.20
2019-03-10T18:22:49.120Z,70.90
2019-03-10T18:25:17.827Z,71.20
2019-03-10T18:27:52.209Z,71.50
2019-03-10T18:30:22.337Z,71.90
2019-03-10T18:32:50.991Z,72.10
2019-03-10T18:35:19.663Z,72.50
2019-03-10T18:37:48.387Z,72.90
2019-03-10T18:40:20.353Z,73.50
2019-03-10T18:42:49.079Z,73.80
2019-03-10T18:45:19.977Z,73.90
2019-03-10T18:47:49.096Z,74.00
2019-03-10T18:50:27.344Z,74.40
2019-03-10T18:52:55.911Z,74.70
2019-03-10T18:55:24.495Z,75.40
2019-03-10T18:57:53.401Z,75.70
2019-03-10T19:00:26.342Z,76.00
2019-03-10T19:02:56.097Z,76.50
2019-03-10T19:05:24.867Z,76.80
2019-03-10T19:07:53.548Z,77.10
2019-03-10T19:10:22.109Z,77.30
2019-03-10T19:12:50.761Z,77.60
2019-03-10T19:15:21.537Z,77.90
2019-03-10T19:17:50.303Z,78.30
2019-03-10T19:20:18.963Z,78.80
2019-03-10T19:22:47.608Z,79.00
2019-03-10T19:25:17.073Z,79.40
2019-03-10T19:27:46.742Z,79.90
2019-03-10T19:30:17.953Z,80.00
2019-03-10T19:32:46.636Z,80.30
2019-03-10T19:35:15.517Z,80.40
2019-03-10T19:37:44.213Z,80.50
2019-03-10T19:40:15.431Z,81.00
2019-03-10T19:42:45.070Z,81.20
2019-03-10T19:45:17.661Z,81.40
2019-03-10T19:47:49.508Z,81.50
2019-03-10T19:50:27.843Z,81.40
2019-03-10T19:52:57.728Z,81.50
2019-03-10T19:55:26.546Z,81.80
2019-03-10T19:57:57.070Z,83.20
2019-03-10T20:00:25.765Z,83.00
2019-03-10T20:02:54.411Z,83.50
2019-03-10T20:05:23.085Z,83.60
2019-03-10T20:07:51.675Z,83.60
2019-03-10T20:10:23.336Z,84.60
2019-03-10T20:12:52.326Z,84.10
2019-03-10T20:15:22.883Z,83.80
2019-03-10T20:17:51.460Z,84.20
2019-03-10T20:20:23.728Z,84.40
2019-03-10T20:22:53.206Z,84.50
2019-03-10T20:25:23.356Z,84.50
2019-03-10T20:27:54.033Z,84.90
2019-03-10T20:30:27.517Z,84.80
2019-03-10T20:32:57.148Z,85.00
2019-03-10T20:35:26.690Z,85.10
2019-03-10T20:37:55.292Z,84.90
2019-03-10T20:40:27.968Z,84.70
2019-03-10T20:42:56.640Z,85.00
2019-03-10T20:45:26.219Z,85.40
2019-03-10T20:47:56.466Z,85.20
2019-03-10T20:50:25.230Z,85.80
2019-03-10T20:52:53.796Z,85.80
2019-03-10T20:55:22.423Z,85.60
2019-03-10T20:57:51.152Z,86.10
2019-03-10T21:00:24.487Z,86.40
2019-03-10T21:02:53.196Z,86.50
2019-03-10T21:05:22.172Z,86.40
2019-03-10T21:07:50.849Z,86.80
2019-03-10T21:10:21.066Z,86.50
2019-03-10T21:12:49.712Z,86.40
2019-03-10T21:15:26.289Z,86.50
2019-03-10T21:17:54.856Z,86.80
2019-03-10T21:20:24.465Z,87.40
2019-03-10T21:22:53.186Z,87.80
2019-03-10T21:25:23.543Z,87.80
2019-03-10T21:27:52.136Z,88.00
2019-03-10T21:30:27.977Z,89.00
2019-03-10T21:32:58.140Z,89.40
2019-03-10T21:35:29.395Z,89.50
2019-03-10T21:37:57.978Z,90.20
2019-03-10T21:40:31.195Z,90.00
2019-03-10T21:42:59.902Z,90.00
2019-03-10T21:45:28.579Z,89.60
2019-03-10T21:47:57.145Z,90.20
2019-03-10T21:50:25.811Z,90.00
2019-03-10T21:52:54.540Z,90.40
2019-03-10T21:55:23.147Z,90.20
2019-03-10T21:57:52.656Z,90.30
2019-03-10T22:00:22.200Z,90.40
2019-03-10T22:02:51.235Z,90.30
2019-03-10T22:05:19.933Z,90.30
2019-03-10T22:07:48.483Z,90.30
2019-03-10T22:10:27.561Z,90.40
2019-03-10T22:12:55.707Z,90.60
2019-03-10T22:15:25.267Z,90.60
2019-03-10T22:17:54.213Z,90.70
2019-03-10T22:20:23.160Z,91.00
2019-03-10T22:22:53.075Z,90.90
2019-03-10T22:25:22.119Z,91.10
2019-03-10T22:27:50.731Z,91.20
2019-03-10T22:30:23.128Z,91.40
2019-03-10T22:32:50.916Z,91.60
2019-03-10T22:35:19.593Z,91.90
2019-03-10T22:37:48.155Z,92.40
2019-03-10T22:40:17.962Z,92.40
2019-03-10T22:42:46.832Z,92.70
2019-03-10T22:45:19.002Z,92.90
2019-03-10T22:47:47.618Z,92.80
2019-03-10T22:50:17.753Z,93.30
2019-03-10T22:52:47.299Z,93.60
2019-03-10T22:55:19.962Z,93.70
2019-03-10T22:57:48.531Z,93.90
2019-03-10T23:00:25.820Z,93.90
2019-03-10T23:02:56.434Z,93.70
2019-03-10T23:05:25.090Z,93.70
2019-03-10T23:07:54.027Z,93.70
2019-03-10T23:10:22.618Z,93.80
2019-03-10T23:12:51.198Z,93.60
2019-03-10T23:15:20.171Z,93.50
2019-03-10T23:17:48.782Z,93.60
2019-03-10T23:20:17.359Z,93.70
2019-03-10T23:22:45.916Z,93.80
2019-03-10T23:25:14.638Z,93.60
2019-03-10T23:27:44.217Z,93.50
2019-03-10T23:30:17.945Z,93.40
2019-03-10T23:32:47.074Z,93.40
2019-03-10T23:35:16.586Z,93.50
2019-03-10T23:37:45.327Z,93.50
2019-03-10T23:40:19.195Z,93.30
2019-03-10T23:42:47.839Z,93.20
2019-03-10T23:45:19.133Z,93.40
2019-03-10T23:47:49.170Z,93.60
2019-03-10T23:50:18.810Z,93.70
2019-03-10T23:52:47.632Z,93.70
2019-03-10T23:55:17.447Z,93.60
2019-03-10T23:57:46.539Z,93.40
